PWSweather.com
Personal Weather Stations
Station Observations
KAZTUCSO57
Countryside Manor, Tucson, AZ 85742

Countryside ManorTucson, AZ 85742

Lat: 32.3692, Lon: -111.066

Elevation: 2307

Station Type: Davis VP Pro+ 6163

http://frogville.us

Latest ConditionsUpdated 1:50:00 PM MST Saturday, Aug 29, 2015
Currently Today's Max Today's Min Today's Average
Temperature 106.2°F41.2°C 107.3°F41.8°C 77.2°F25.1°C 88.2°F31.2°C
Dew Point 53.9°F12.2°C 61.7°F16.5°C 53.2°F11.8°C 58.5°F14.7°C
Winds 1.2 mph SSW1.9 kmh SSW 3.5 mph E5.6 kmh E - 0.9 mph 1.4 kmh
Wind Gusts 2.3 mph3.7 kmh 5.8 mph9.3 kmh - -
Humidity 18% 56% 17% 39%
Pressure 29.69 in1005.4 mb 29.78 in1008.5 mb 29.69 in1005.4 mb -
Hour Temp Dew Point Humidity Winds Wind Gusts Pressure Precip Precip Rate Daily Precip Total
01:50 PM 106.2°F41.2°C 53.9°F12.2°C 18% 1.2 mph SSW1.9 kmh SSW 2.3 mph3.7 kmh 29.69 in1005.4 mb - 0.00 in0.0 mm 0.00 in0.0 mm
01:40 PM 107.3°F41.8°C 53.2°F11.8°C 17% 1.2 mph SE1.9 kmh SE 3.5 mph5.6 kmh 29.70 in1005.8 mb - 0.00 in0.0 mm 0.00 in0.0 mm
01:30 PM 107.2°F41.8°C 54.7°F12.6°C 18% 1.2 mph SW1.9 kmh SW 3.5 mph5.6 kmh 29.70 in1005.8 mb - 0.00 in0.0 mm 0.00 in0.0 mm
01:20 PM 106.0°F41.1°C 55.2°F12.9°C 19% 1.2 mph W1.9 kmh W 2.3 mph3.7 kmh 29.70 in1005.8 mb - 0.00 in0.0 mm 0.00 in0.0 mm
01:10 PM 105.3°F40.7°C 54.7°F12.6°C 19% 1.2 mph S1.9 kmh S 4.6 mph7.4 kmh 29.71 in1006.1 mb - 0.00 in0.0 mm 0.00 in0.0 mm
01:00 PM 106.2°F41.2°C 55.4°F13.0°C 19% 2.3 mph SW3.7 kmh SW 5.8 mph9.3 kmh 29.72 in1006.4 mb - 0.00 in0.0 mm 0.00 in0.0 mm
12:50 PM 105.9°F41.1°C 55.1°F12.8°C 19% 2.3 mph SW3.7 kmh SW 3.5 mph5.6 kmh 29.72 in1006.4 mb - 0.00 in0.0 mm 0.00 in0.0 mm
12:40 PM 104.8°F40.4°C 55.7°F13.2°C 20% 2.3 mph SW3.7 kmh SW 3.5 mph5.6 kmh 29.72 in1006.4 mb - 0.00 in0.0 mm 0.00 in0.0 mm
12:30 PM 105.2°F40.7°C 54.6°F12.6°C 19% 2.3 mph WSW3.7 kmh WSW 3.5 mph5.6 kmh 29.73 in1006.8 mb - 0.00 in0.0 mm 0.00 in0.0 mm
12:20 PM 104.5°F40.3°C 56.7°F13.7°C 21% 2.3 mph W3.7 kmh W 4.6 mph7.4 kmh 29.73 in1006.8 mb - 0.00 in0.0 mm 0.00 in0.0 mm
12:10 PM 102.8°F39.3°C 56.7°F13.7°C 22% 1.2 mph WNW1.9 kmh WNW 2.3 mph3.7 kmh 29.74 in1007.1 mb - 0.00 in0.0 mm 0.00 in0.0 mm
12:00 PM 102.8°F39.3°C 56.6°F13.7°C 22% 2.3 mph SW3.7 kmh SW 3.5 mph5.6 kmh 29.75 in1007.5 mb - 0.00 in0.0 mm 0.00 in0.0 mm
11:50 AM 102.4°F39.1°C 56.3°F13.5°C 22% 1.2 mph SSW1.9 kmh SSW 2.3 mph3.7 kmh 29.75 in1007.5 mb - 0.00 in0.0 mm 0.00 in0.0 mm
11:40 AM 101.9°F38.8°C 55.9°F13.3°C 22% Calm Calm 3.5 mph5.6 kmh 29.76 in1007.8 mb - 0.00 in0.0 mm 0.00 in0.0 mm
11:30 AM 101.1°F38.4°C 56.5°F13.6°C 23% 1.2 mph WSW1.9 kmh WSW 2.3 mph3.7 kmh 29.76 in1007.8 mb - 0.00 in0.0 mm 0.00 in0.0 mm
11:20 AM 100.5°F38.1°C 56.0°F13.3°C 23% 1.2 mph SE1.9 kmh SE 3.5 mph5.6 kmh 29.77 in1008.1 mb - 0.00 in0.0 mm 0.00 in0.0 mm
11:10 AM 99.8°F37.7°C 56.6°F13.7°C 24% 2.3 mph SSE3.7 kmh SSE 3.5 mph5.6 kmh 29.77 in1008.1 mb - 0.00 in0.0 mm 0.00 in0.0 mm
11:00 AM 99.2°F37.3°C 58.3°F14.6°C 26% 2.3 mph ESE3.7 kmh ESE 3.5 mph5.6 kmh 29.77 in1008.1 mb - 0.00 in0.0 mm 0.00 in0.0 mm
10:50 AM 98.7°F37.1°C 57.9°F14.4°C 26% 1.2 mph S1.9 kmh S 3.5 mph5.6 kmh 29.78 in1008.5 mb - 0.00 in0.0 mm 0.00 in0.0 mm
10:40 AM 98.3°F36.8°C 58.6°F14.8°C 27% 2.3 mph SSW3.7 kmh SSW 3.5 mph5.6 kmh 29.78 in1008.5 mb - 0.00 in0.0 mm 0.00 in0.0 mm
10:30 AM 97.9°F36.6°C 58.3°F14.6°C 27% 1.2 mph SE1.9 kmh SE 5.8 mph9.3 kmh 29.78 in1008.5 mb - 0.00 in0.0 mm 0.00 in0.0 mm
10:20 AM 97.5°F36.4°C 58.9°F14.9°C 28% 2.3 mph S3.7 kmh S 3.5 mph5.6 kmh 29.78 in1008.5 mb - 0.00 in0.0 mm 0.00 in0.0 mm
10:10 AM 96.9°F36.1°C 59.4°F15.2°C 29% 2.3 mph S3.7 kmh S 4.6 mph7.4 kmh 29.78 in1008.5 mb - 0.00 in0.0 mm 0.00 in0.0 mm
10:00 AM 96.2°F35.7°C 58.8°F14.9°C 29% 1.2 mph ENE1.9 kmh ENE 3.5 mph5.6 kmh 29.78 in1008.5 mb - 0.00 in0.0 mm 0.00 in0.0 mm
09:50 AM 95.5°F35.3°C 59.2°F15.1°C 30% 1.2 mph S1.9 kmh S 4.6 mph7.4 kmh 29.78 in1008.5 mb - 0.00 in0.0 mm 0.00 in0.0 mm
09:40 AM 94.5°F34.7°C 60.1°F15.6°C 32% 1.2 mph S1.9 kmh S 1.2 mph1.9 kmh 29.78 in1008.5 mb - 0.00 in0.0 mm 0.00 in0.0 mm
09:30 AM 93.7°F34.3°C 59.4°F15.2°C 32% 1.2 mph ESE1.9 kmh ESE 2.3 mph3.7 kmh 29.78 in1008.5 mb - 0.00 in0.0 mm 0.00 in0.0 mm
09:20 AM 92.8°F33.8°C 61.2°F16.2°C 35% 1.2 mph SE1.9 kmh SE 3.5 mph5.6 kmh 29.78 in1008.5 mb - 0.00 in0.0 mm 0.00 in0.0 mm
09:10 AM 91.9°F33.3°C 61.1°F16.2°C 36% 1.2 mph S1.9 kmh S 2.3 mph3.7 kmh 29.78 in1008.5 mb - 0.00 in0.0 mm 0.00 in0.0 mm
09:00 AM 90.8°F32.7°C 60.9°F16.1°C 37% 1.2 mph E1.9 kmh E 3.5 mph5.6 kmh 29.78 in1008.5 mb - 0.00 in0.0 mm 0.00 in0.0 mm
08:50 AM 90.0°F32.2°C 61.0°F16.1°C 38% 2.3 mph SSW3.7 kmh SSW 3.5 mph5.6 kmh 29.78 in1008.5 mb - 0.00 in0.0 mm 0.00 in0.0 mm
08:40 AM 89.2°F31.8°C 61.0°F16.1°C 39% 3.5 mph E5.6 kmh E 4.6 mph7.4 kmh 29.78 in1008.5 mb - 0.00 in0.0 mm 0.00 in0.0 mm
08:30 AM 88.3°F31.3°C 61.6°F16.4°C 41% 2.3 mph E3.7 kmh E 3.5 mph5.6 kmh 29.78 in1008.5 mb - 0.00 in0.0 mm 0.00 in0.0 mm
08:20 AM 87.5°F30.8°C 61.6°F16.4°C 42% 2.3 mph E3.7 kmh E 2.3 mph3.7 kmh 29.78 in1008.5 mb - 0.00 in0.0 mm 0.00 in0.0 mm
08:10 AM 86.5°F30.3°C 61.4°F16.3°C 43% 1.2 mph SE1.9 kmh SE 2.3 mph3.7 kmh 29.78 in1008.5 mb - 0.00 in0.0 mm 0.00 in0.0 mm
08:00 AM 85.6°F29.8°C 61.2°F16.2°C 44% 1.2 mph NE1.9 kmh NE 3.5 mph5.6 kmh 29.78 in1008.5 mb - 0.00 in0.0 mm 0.00 in0.0 mm
07:50 AM 84.7°F29.3°C 61.7°F16.5°C 46% 1.2 mph E1.9 kmh E 3.5 mph5.6 kmh 29.77 in1008.1 mb - 0.00 in0.0 mm 0.00 in0.0 mm
07:40 AM 83.8°F28.8°C 61.4°F16.3°C 47% 1.2 mph SE1.9 kmh SE 1.2 mph1.9 kmh 29.78 in1008.5 mb - 0.00 in0.0 mm 0.00 in0.0 mm
07:30 AM 82.8°F28.2°C 61.1°F16.2°C 48% 1.2 mph NE1.9 kmh NE 2.3 mph3.7 kmh 29.78 in1008.5 mb - 0.00 in0.0 mm 0.00 in0.0 mm
07:20 AM 81.4°F27.4°C 60.4°F15.8°C 49% 1.2 mph SE1.9 kmh SE 2.3 mph3.7 kmh 29.77 in1008.1 mb - 0.00 in0.0 mm 0.00 in0.0 mm
07:10 AM 79.6°F26.4°C 60.4°F15.8°C 52% Calm Calm 1.2 mph1.9 kmh 29.77 in1008.1 mb - 0.00 in0.0 mm 0.00 in0.0 mm
07:00 AM 78.2°F25.7°C 60.2°F15.7°C 54% 2.3 mph NNE3.7 kmh NNE 3.5 mph5.6 kmh 29.77 in1008.1 mb - 0.00 in0.0 mm 0.00 in0.0 mm
06:50 AM 77.4°F25.2°C 60.0°F15.6°C 55% 1.2 mph NE1.9 kmh NE 2.3 mph3.7 kmh 29.77 in1008.1 mb - 0.00 in0.0 mm 0.00 in0.0 mm
06:40 AM 77.2°F25.1°C 60.3°F15.7°C 56% Calm Calm 2.3 mph3.7 kmh 29.76 in1007.8 mb - 0.00 in0.0 mm 0.00 in0.0 mm
06:30 AM 77.3°F25.2°C 59.9°F15.5°C 55% Calm Calm 2.3 mph3.7 kmh 29.76 in1007.8 mb - 0.00 in0.0 mm 0.00 in0.0 mm
06:20 AM 77.5°F25.3°C 59.5°F15.3°C 54% Calm Calm 1.2 mph1.9 kmh 29.76 in1007.8 mb - 0.00 in0.0 mm 0.00 in0.0 mm
06:10 AM 77.6°F25.3°C 59.6°F15.3°C 54% Calm Calm 1.2 mph1.9 kmh 29.75 in1007.5 mb - 0.00 in0.0 mm 0.00 in0.0 mm
06:00 AM 77.7°F25.4°C 59.7°F15.4°C 54% Calm Calm 1.2 mph1.9 kmh 29.75 in1007.5 mb - 0.00 in0.0 mm 0.00 in0.0 mm
05:50 AM 77.7°F25.4°C 59.2°F15.1°C 53% Calm Calm 1.2 mph1.9 kmh 29.75 in1007.5 mb - 0.00 in0.0 mm 0.00 in0.0 mm
05:40 AM 77.9°F25.5°C 59.4°F15.2°C 53% Calm Calm 2.3 mph3.7 kmh 29.74 in1007.1 mb - 0.00 in0.0 mm 0.00 in0.0 mm
05:30 AM 78.0°F25.6°C 58.9°F14.9°C 52% Calm Calm -- 29.74 in1007.1 mb - 0.00 in0.0 mm 0.00 in0.0 mm
05:20 AM 77.9°F25.5°C 58.9°F14.9°C 52% Calm Calm -- 29.74 in1007.1 mb - 0.00 in0.0 mm 0.00 in0.0 mm
05:10 AM 77.9°F25.5°C 58.9°F14.9°C 52% 1.2 mph NE1.9 kmh NE 1.2 mph1.9 kmh 29.74 in1007.1 mb - 0.00 in0.0 mm 0.00 in0.0 mm
05:00 AM 78.0°F25.6°C 58.4°F14.7°C 51% Calm Calm -- 29.74 in1007.1 mb - 0.00 in0.0 mm 0.00 in0.0 mm
04:50 AM 78.2°F25.7°C 58.6°F14.8°C 51% Calm Calm -- 29.74 in1007.1 mb - 0.00 in0.0 mm 0.00 in0.0 mm
04:40 AM 78.4°F25.8°C 58.8°F14.9°C 51% Calm Calm -- 29.73 in1006.8 mb - 0.00 in0.0 mm 0.00 in0.0 mm
04:30 AM 78.6°F25.9°C 58.4°F14.7°C 50% Calm Calm -- 29.73 in1006.8 mb - 0.00 in0.0 mm 0.00 in0.0 mm
04:20 AM 78.9°F26.1°C 58.7°F14.8°C 50% Calm Calm -- 29.73 in1006.8 mb - 0.00 in0.0 mm 0.00 in0.0 mm
04:10 AM 79.0°F26.1°C 58.2°F14.6°C 49% Calm Calm -- 29.73 in1006.8 mb - 0.00 in0.0 mm 0.00 in0.0 mm
04:00 AM 79.4°F26.3°C 58.6°F14.8°C 49% Calm Calm 1.2 mph1.9 kmh 29.73 in1006.8 mb - 0.00 in0.0 mm 0.00 in0.0 mm
03:50 AM 79.9°F26.6°C 58.5°F14.7°C 48% Calm Calm 1.2 mph1.9 kmh 29.73 in1006.8 mb - 0.00 in0.0 mm 0.00 in0.0 mm
03:40 AM 80.4°F26.9°C 58.3°F14.6°C 47% Calm Calm -- 29.73 in1006.8 mb - 0.00 in0.0 mm 0.00 in0.0 mm
03:30 AM 80.8°F27.1°C 58.7°F14.8°C 47% Calm Calm -- 29.72 in1006.4 mb - 0.00 in0.0 mm 0.00 in0.0 mm
03:20 AM 81.0°F27.2°C 58.2°F14.6°C 46% Calm Calm -- 29.72 in1006.4 mb - 0.00 in0.0 mm 0.00 in0.0 mm
03:10 AM 80.9°F27.2°C 58.2°F14.6°C 46% 1.2 mph NE1.9 kmh NE 2.3 mph3.7 kmh 29.72 in1006.4 mb - 0.00 in0.0 mm 0.00 in0.0 mm
03:00 AM 81.1°F27.3°C 58.4°F14.7°C 46% Calm Calm 1.2 mph1.9 kmh 29.72 in1006.4 mb - 0.00 in0.0 mm 0.00 in0.0 mm
02:50 AM 81.2°F27.3°C 57.8°F14.3°C 45% Calm Calm -- 29.72 in1006.4 mb - 0.00 in0.0 mm 0.00 in0.0 mm
02:40 AM 81.6°F27.6°C 58.2°F14.6°C 45% Calm Calm -- 29.72 in1006.4 mb - 0.00 in0.0 mm 0.00 in0.0 mm
02:30 AM 81.9°F27.7°C 57.8°F14.3°C 44% Calm Calm -- 29.72 in1006.4 mb - 0.00 in0.0 mm 0.00 in0.0 mm
02:20 AM 82.0°F27.8°C 57.9°F14.4°C 44% Calm Calm -- 29.72 in1006.4 mb - 0.00 in0.0 mm 0.00 in0.0 mm
02:10 AM 82.2°F27.9°C 58.1°F14.5°C 44% Calm Calm -- 29.72 in1006.4 mb - 0.00 in0.0 mm 0.00 in0.0 mm
02:00 AM 82.2°F27.9°C 58.1°F14.5°C 44% Calm Calm -- 29.72 in1006.4 mb - 0.00 in0.0 mm 0.00 in0.0 mm
01:50 AM 82.2°F27.9°C 58.1°F14.5°C 44% Calm Calm -- 29.71 in1006.1 mb - 0.00 in0.0 mm 0.00 in0.0 mm
01:40 AM 82.3°F27.9°C 58.8°F14.9°C 45% Calm Calm -- 29.71 in1006.1 mb - 0.00 in0.0 mm 0.00 in0.0 mm
01:30 AM 82.3°F27.9°C 58.8°F14.9°C 45% Calm Calm 1.2 mph1.9 kmh 29.71 in1006.1 mb - 0.00 in0.0 mm 0.00 in0.0 mm
01:20 AM 82.3°F27.9°C 58.9°F14.9°C 45% Calm Calm -- 29.71 in1006.1 mb - 0.00 in0.0 mm 0.00 in0.0 mm
01:10 AM 82.5°F28.1°C 59.6°F15.3°C 46% Calm Calm -- 29.71 in1006.1 mb - 0.00 in0.0 mm 0.00 in0.0 mm
01:00 AM 83.0°F28.3°C 59.4°F15.2°C 45% 1.2 mph NE1.9 kmh NE 2.3 mph3.7 kmh 29.72 in1006.4 mb - 0.00 in0.0 mm 0.00 in0.0 mm
12:50 AM 83.5°F28.6°C 58.0°F14.4°C 42% Calm Calm -- 29.72 in1006.4 mb - 0.00 in0.0 mm 0.00 in0.0 mm
12:40 AM 84.1°F28.9°C 57.9°F14.4°C 41% Calm Calm -- 29.72 in1006.4 mb - 0.00 in0.0 mm 0.00 in0.0 mm
12:30 AM 84.5°F29.2°C 57.5°F14.2°C 40% Calm Calm -- 29.72 in1006.4 mb - 0.00 in0.0 mm 0.00 in0.0 mm
12:20 AM 84.6°F29.2°C 57.6°F14.2°C 40% Calm Calm -- 29.72 in1006.4 mb - 0.00 in0.0 mm 0.00 in0.0 mm
12:10 AM 84.8°F29.3°C 57.1°F13.9°C 39% Calm Calm 1.2 mph1.9 kmh 29.72 in1006.4 mb - 0.00 in0.0 mm 0.00 in0.0 mm
12:00 AM 85.1°F29.5°C 57.4°F14.1°C 39% Calm Calm 1.2 mph1.9 kmh 29.72 in1006.4 mb - 0.00 in0.0 mm 0.00 in0.0 mm